KBRD/BRD METAR and TAF weather

Enter ICAO airport designator
Station Type Date Time Source
KBRD METAR 2019/10/23 14:53 UTC NOAA

KBRD 231453Z AUTO 33013KT 10SM OVC020 04/M02 A2982 RMK AO2 SLP110 T00391017 51018


Station Type Date Time Source
KBRD Decoded METAR 2019/10/23 14:53 UTC NOAA

BRAINERD-CROW WING CO AIRPORT , MN, United States (KBRD) 46-24N 94-08W 372M
Oct 23, 2019 - 10:53 AM EDT / 2019.10.23 1453 UTC
Wind: from the NNW (330 degrees) at 15 MPH (13 KT):0
Visibility: 10 mile(s):0
Sky conditions: overcast
Temperature: 39.0 F (3.9 C)
Dew Point: 28.9 F (-1.7 C)
Relative Humidity: 66%
Pressure (altimeter): 29.82 in. Hg (1009 hPa)
Pressure tendency: 0.05 inches (1.8 hPa) higher than three hours ago
ob: KBRD 231453Z AUTO 33013KT 10SM OVC020 04/M02 A2982 RMK AO2 SLP110 T00391017 51018
cycle: 15

Station Type Date Time Source
KBRD TAF 2019/10/23 18:24 UTC NOAA

TAF KBRD 231722Z 2318/2418 32011KT P6SM OVC020
FM231900 32010G17KT P6SM SCT015 OVC025
FM240800 31008KT P6SM BKN035
AMD NOT SKED

Example: see airport list